Home > Products > Valid Products > TAF

000
FTUS42 KFFC 202005 AAA
TAFMCN
TAF AMD
KMCN 202005Z 2020/2118 28009KT P6SM FEW250
     FM210000 33003KT P6SM FEW250
     FM211500 03005KT P6SM FEW250=



000
FTUS42 KFFC 202005 AAA
TAFATL
TAF AMD
KATL 202005Z 2020/2124 28010G18KT P6SM SCT250
     FM210000 33005KT P6SM FEW250
     FM211700 03005KT P6SM FEW250=



000
FTUS42 KFFC 201740
TAFATL
TAF
KATL 201740Z 2018/2124 28010G18KT P6SM FEW250
     FM210000 33005KT P6SM FEW250
     FM211700 03005KT P6SM FEW250=



000
FTUS42 KFFC 201740
TAFRYY
TAF
KRYY 201740Z 2018/2118 28010G18KT P6SM FEW250
     FM210000 33003KT P6SM FEW250
     FM211700 03005KT P6SM FEW250=



000
FTUS42 KFFC 201740
TAFCSG
TAF
KCSG 201740Z 2018/2118 28009KT P6SM FEW250
     FM210000 34003KT P6SM FEW250
     FM211200 05004KT P6SM FEW250=



000
FTUS42 KFFC 201740
TAFMCN
TAF
KMCN 201740Z 2018/2118 28009KT P6SM FEW250
     FM210000 33003KT P6SM FEW250
     FM211700 03005KT P6SM FEW250=



000
FTUS42 KFFC 201740
TAFPDK
TAF
KPDK 201740Z 2018/2118 28010G18KT P6SM FEW250
     FM210000 33003KT P6SM FEW250
     FM211700 03005KT P6SM FEW250=



000
FTUS42 KFFC 201740
TAFFTY
TAF
KFTY 201740Z 2018/2118 28010G18KT P6SM FEW250
     FM210000 33003KT P6SM FEW250
     FM211700 03005KT P6SM FEW250=



000
FTUS42 KFFC 201740
TAFAHN
TAF
KAHN 201740Z 2018/2118 28009KT P6SM FEW250
     FM210000 31003KT P6SM FEW250
     FM211700 04005KT P6SM FEW250=



000
FTUS42 KFFC 201553 AAA
TAFRYY
TAF AMD
KRYY 201553Z 2016/2112 28010G18KT P6SM FEW250
     FM202300 30004KT P6SM FEW250=



000
FTUS42 KFFC 201549 AAB
TAFATL
TAF AMD
KATL 201549Z 2016/2118 28010G18KT P6SM FEW250
     FM210000 30005KT P6SM FEW250
     FM211500 35005KT P6SM FEW250=



000
FTUS42 KFFC 201352 AAA
TAFATL
TAF AMD
KATL 201352Z 2014/2118 25006KT P6SM SKC
     FM201700 28010G18KT P6SM FEW250
     FM210000 30005KT P6SM FEW250
     FM211500 35005KT P6SM FEW250=



000
FTUS42 KFFC 201120
TAFAHN
TAF
KAHN 201120Z 2012/2112 24004KT P6SM SKC
     FM201700 27009KT P6SM FEW250
     FM202300 29004KT P6SM FEW250=



000
FTUS42 KFFC 201120
TAFATL
TAF
KATL 201120Z 2012/2118 25006KT P6SM FEW250
     FM201600 28010G18KT P6SM FEW250
     FM210000 30005KT P6SM FEW250
     FM211500 35005KT P6SM FEW250=



000
FTUS42 KFFC 201120
TAFMCN
TAF
KMCN 201120Z 2012/2112 27004KT P6SM SKC
     FM201800 27008KT P6SM SKC
     FM202300 28004KT P6SM FEW250=



000
FTUS42 KFFC 201120
TAFFTY
TAF
KFTY 201120Z 2012/2112 22004KT P6SM SKC
     FM201800 28008KT P6SM FEW250
     FM202300 30004KT P6SM FEW250=



000
FTUS42 KFFC 201120
TAFCSG
TAF
KCSG 201120Z 2012/2112 20004KT P6SM SKC
     FM201800 27007KT P6SM SKC
     FM202300 29004KT P6SM FEW250=



000
FTUS42 KFFC 201120
TAFPDK
TAF
KPDK 201120Z 2012/2112 22004KT P6SM SKC
     FM201800 28008KT P6SM FEW250
     FM202300 30004KT P6SM FEW250=



000
FTUS42 KFFC 201120
TAFRYY
TAF
KRYY 201120Z 2012/2112 22004KT P6SM SKC
     FM201800 28008KT P6SM FEW250
     FM202300 30004KT P6SM FEW250=



000
FTUS42 KFFC 200953 AAB
TAFATL
TAF AMD
KATL 200953Z 2010/2112 25006KT P6SM FEW250
     FM201600 28010KT P6SM FEW250
     FM210000 30005KT P6SM FEW250=



000
FTUS42 KFFC 200953 AAB
TAFATL
TAF AMD
KATL 200953Z 2010/2112 25006KT P6SM FEW250
     FM201600 28010KT P6SM FEW250
     FM210000 30005KT P6SM FEW250=



000
FTUS42 KFFC 200751 AAA
TAFATL
TAF AMD
KATL 200751Z 2008/2112 25006KT P6SM FEW250
     FM201600 28010KT P6SM FEW250
     FM210000 30005KT P6SM FEW250=



000
FTUS42 KFFC 200526
TAFFTY
TAF
KFTY 200526Z 2006/2106 22004KT P6SM SKC
     FM201800 28008KT P6SM FEW250
     FM202300 29004KT P6SM FEW250=



000
FTUS42 KFFC 200526
TAFATL
TAF
KATL 200526Z 2006/2112 25006KT P6SM FEW250
     FM201600 28010KT P6SM FEW250
     FM210000 30005KT P6SM FEW250=



000
FTUS42 KFFC 200526
TAFMCN
TAF
KMCN 200526Z 2006/2106 27004KT P6SM SKC
     FM201800 27008KT P6SM SKC
     FM202300 28004KT P6SM FEW250=



000
FTUS42 KFFC 200526
TAFAHN
TAF
KAHN 200526Z 2006/2106 24004KT P6SM SKC
     FM201700 27009KT P6SM FEW250
     FM202300 28004KT P6SM FEW250=



000
FTUS42 KFFC 200526
TAFCSG
TAF
KCSG 200526Z 2006/2106 20004KT P6SM SKC
     FM201800 27007KT P6SM SKC
     FM202300 28004KT P6SM FEW250=



000
FTUS42 KFFC 200526
TAFRYY
TAF
KRYY 200526Z 2006/2106 22004KT P6SM SKC
     FM201800 28008KT P6SM FEW250
     FM202300 29004KT P6SM FEW250=



000
FTUS42 KFFC 200526
TAFPDK
TAF
KPDK 200526Z 2006/2106 22004KT P6SM SKC
     FM201800 28008KT P6SM FEW250
     FM202300 29004KT P6SM FEW250=



000
FTUS42 KFFC 200341 AAB
TAFATL
TAF AMD
KATL 200341Z 2004/2106 22005KT P6SM FEW250
     FM201300 27007KT P6SM FEW200
     FM201800 28010G18KT P6SM FEW200
     FM210000 30005KT P6SM FEW200=



000
FTUS42 KFFC 200341 AAB
TAFATL
TAF AMD
KATL 200341Z 2004/2106 22005KT P6SM FEW250
     FM201300 27007KT P6SM FEW200
     FM201800 28010G18KT P6SM FEW200
     FM210000 30005KT P6SM FEW200=



000
FTUS42 KFFC 200156 AAA
TAFATL
TAF AMD
KATL 200156Z 2002/2106 22006KT P6SM FEW250
     FM201300 27007KT P6SM FEW200
     FM201800 28010G18KT P6SM FEW200
     FM210000 30005KT P6SM FEW200=



000
FTUS42 KFFC 192333
TAFMCN
TAF
KMCN 192333Z 2000/2024 00000KT P6SM SKC
     FM201500 27006KT P6SM SKC
     FM201800 27008KT P6SM SKC=



000
FTUS42 KFFC 192333
TAFCSG
TAF
KCSG 192333Z 2000/2024 20004KT P6SM SKC
     FM201500 27006KT P6SM SKC
     FM201800 27008KT P6SM SKC=



000
FTUS42 KFFC 192333
TAFRYY
TAF
KRYY 192333Z 2000/2024 22004KT P6SM SKC
     FM201300 27006KT P6SM FEW200
     FM201800 28008G15KT P6SM FEW200
     FM202300 29006KT P6SM FEW250
      AMD NOT SKED 2004/2012=



000
FTUS42 KFFC 192333
TAFATL
TAF
KATL 192333Z 2000/2106 22005KT P6SM FEW250
     FM201300 27007KT P6SM FEW200
     FM201800 28010G18KT P6SM FEW200
     FM210000 30005KT P6SM FEW200=



000
FTUS42 KFFC 192333
TAFFTY
TAF
KFTY 192333Z 2000/2024 22004KT P6SM SKC
     FM201300 27005KT P6SM FEW200
     FM201800 28008G15KT P6SM FEW200
     FM202300 29006KT P6SM FEW200=



000
FTUS42 KFFC 192333
TAFPDK
TAF
KPDK 192333Z 2000/2024 22004KT P6SM SKC
     FM201300 27005KT P6SM FEW200
     FM201800 28008G15KT P6SM FEW200
     FM202300 29006KT P6SM FEW200=



000
FTUS42 KFFC 192333
TAFAHN
TAF
KAHN 192333Z 2000/2024 22003KT P6SM SKC
     FM200800 25005KT P6SM SKC
     FM201700 27009G15KT P6SM FEW200
     FM202300 27005KT P6SM FEW200=



000
FTUS42 KFFC 192156 AAB
TAFATL
TAF AMD
KATL 192156Z 1922/2024 22007KT P6SM FEW250
     FM201300 27007KT P6SM SCT025
     FM201800 27010G18KT P6SM SCT030=



000
FTUS42 KFFC 191933 AAA
TAFATL
TAF AMD
KATL 191933Z 1920/2024 27012KT P6SM FEW250
     FM192200 27005KT P6SM FEW250
     FM201300 27007KT P6SM SCT025
     FM201800 27010G18KT P6SM SCT030=



000
FTUS42 KFFC 191731
TAFPDK
TAF
KPDK 191731Z 1918/2018 27005KT P6SM FEW250
     FM201300 27003KT P6SM SCT025
     FM201700 27009KT P6SM SCT030=



000
FTUS42 KFFC 191731
TAFFTY
TAF
KFTY 191731Z 1918/2018 27005KT P6SM FEW250
     FM201300 27003KT P6SM SCT025
     FM201700 27009KT P6SM SCT030=



000
FTUS42 KFFC 191731
TAFATL
TAF
KATL 191731Z 1918/2024 27007KT P6SM FEW250
     FM201300 27006KT P6SM SCT025
     FM201800 27010G18KT P6SM SCT030=



000
FTUS42 KFFC 191731
TAFRYY
TAF
KRYY 191731Z 1918/2018 29008KT P6SM FEW250
     FM201300 27003KT P6SM SCT025
     FM201700 27009KT P6SM SCT030=



000
FTUS42 KFFC 191731
TAFMCN
TAF
KMCN 191731Z 1918/2018 27004KT P6SM FEW250
     FM201300 27003KT P6SM SKC
     FM201700 27006KT P6SM FEW030=



000
FTUS42 KFFC 191731
TAFAHN
TAF
KAHN 191731Z 1918/2018 27004KT P6SM FEW250
     FM201300 27003KT P6SM SCT025
     FM201700 27009KT P6SM SCT030=



000
FTUS42 KFFC 191731
TAFCSG
TAF
KCSG 191731Z 1918/2018 27004KT P6SM FEW250
     FM201300 27003KT P6SM SKC
     FM201700 27006KT P6SM FEW030=



000
FTUS42 KFFC 191602 AAB
TAFATL
TAF AMD
KATL 191602Z 1916/2018 27007KT P6SM FEW250
     FM201300 27006KT P6SM SCT025=



000
FTUS42 KFFC 191347 AAA
TAFATL
TAF AMD
KATL 191347Z 1914/2018 30005KT P6SM SKC
     FM191600 23006KT P6SM SCT200=



000
FTUS42 KFFC 191121
TAFMCN
TAF
KMCN 191121Z 1912/2012 00000KT P6SM SKC
     FM191600 25005KT P6SM SKC
     FM200200 22003KT P6SM SKC=



000
FTUS42 KFFC 191121
TAFATL
TAF
KATL 191121Z 1912/2018 30005KT P6SM SKC
     FM191600 23006KT P6SM SKC=



000
FTUS42 KFFC 191121
TAFCSG
TAF
KCSG 191121Z 1912/2012 00000KT P6SM SKC
     FM191600 25005KT P6SM SKC
     FM200200 22003KT P6SM SKC=



000
FTUS42 KFFC 191121
TAFPDK
TAF
KPDK 191121Z 1912/2012 00000KT P6SM SKC
     FM191600 24006KT P6SM SKC=



000
FTUS42 KFFC 191121
TAFFTY
TAF
KFTY 191121Z 1912/2012 00000KT P6SM SKC
     FM191600 24006KT P6SM SKC=



000
FTUS42 KFFC 191121
TAFRYY
TAF
KRYY 191121Z 1912/2012 00000KT P6SM SKC
     FM191600 24006KT P6SM SKC
      AMD NOT SKED TIL 191200=



000
FTUS42 KFFC 191121
TAFAHN
TAF
KAHN 191121Z 1912/2012 25005KT P6SM SKC
     FM200200 22003KT P6SM SKC=



000
FTUS42 KFFC 190948 AAB
TAFATL
TAF AMD
KATL 190948Z 1910/2012 30004KT P6SM SKC
     FM191700 23006KT P6SM SKC=



000
FTUS42 KFFC 190948 AAB
TAFATL
TAF AMD
KATL 190948Z 1910/2012 30004KT P6SM SKC
     FM191700 23006KT P6SM SKC=



000
FTUS42 KFFC 190759 AAA
TAFATL
TAF AMD
KATL 190759Z 1908/2012 30004KT P6SM SKC
     FM191700 23006KT P6SM SKC=



000
FTUS42 KFFC 190520
TAFMCN
TAF
KMCN 190520Z 1906/2006 00000KT P6SM SKC
     FM191600 26005KT P6SM SKC
     FM200200 22003KT P6SM SKC=



000
FTUS42 KFFC 190520
TAFCSG
TAF
KCSG 190520Z 1906/2006 00000KT P6SM SKC
     FM191600 25005KT P6SM SKC
     FM200200 22003KT P6SM SKC=



000
FTUS42 KFFC 190520
TAFAHN
TAF
KAHN 190520Z 1906/2006 00000KT P6SM SKC
     FM191600 25005KT P6SM SKC
     FM200200 22003KT P6SM SKC=



000
FTUS42 KFFC 190520
TAFATL
TAF
KATL 190520Z 1906/2012 30004KT P6SM SKC
     FM191700 23006KT P6SM SKC=



000
FTUS42 KFFC 190520
TAFPDK
TAF
KPDK 190520Z 1906/2006 00000KT P6SM SKC
     FM191600 24006KT P6SM SKC=



000
FTUS42 KFFC 190520
TAFRYY
TAF
KRYY 190520Z 1906/2006 00000KT P6SM SKC
     FM191600 24006KT P6SM SKC
      AMD NOT SKED TIL 191200=



000
FTUS42 KFFC 190520
TAFFTY
TAF
KFTY 190520Z 1906/2006 00000KT P6SM SKC
     FM191600 24006KT P6SM SKC=



000
FTUS42 KFFC 190336 AAA
TAFRYY
TAF AMD
KRYY 190336Z 1904/1924 31003KT P6SM SKC
     FM190400 00000KT P6SM SKC
     FM191600 24006KT P6SM SKC
      AMD NOT SKED 1904/1912=



000
FTUS42 KFFC 190336 AAA
TAFCSG
TAF AMD
KCSG 190336Z 1904/1924 00000KT P6SM SKC
     FM191600 25005KT P6SM SKC=



000
FTUS42 KFFC 190336 AAA
TAFFTY
TAF AMD
KFTY 190336Z 1904/1924 29004KT P6SM SKC
     FM190400 00000KT P6SM SKC
     FM191600 24006KT P6SM SKC=



000
FTUS42 KFFC 190336 AAA
TAFMCN
TAF AMD
KMCN 190336Z 1904/1924 32003KT P6SM FEW250
     FM190400 00000KT P6SM SKC
     FM191600 26005KT P6SM SKC=



000
FTUS42 KFFC 190336 AAA
TAFPDK
TAF AMD
KPDK 190336Z 1904/1924 29005KT P6SM SKC
     FM190400 00000KT P6SM SKC
     FM191600 24006KT P6SM SKC=



000
FTUS42 KFFC 190336 AAA
TAFAHN
TAF AMD
KAHN 190336Z 1904/1924 28003KT P6SM SKC
     FM190400 00000KT P6SM SKC
     FM191600 25005KT P6SM SKC=



000
FTUS42 KFFC 190334 AAB
TAFATL
TAF AMD
KATL 190334Z 1904/2006 31006KT P6SM SKC
     FM190400 30003KT P6SM SKC
     FM191700 25006KT P6SM SKC
     FM192000 22007KT P6SM SKC=



000
FTUS42 KFFC 190143 AAA
TAFATL
TAF AMD
KATL 190143Z 1902/2006 31006KT P6SM SKC
     FM190400 30003KT P6SM SKC
     FM191700 25006KT P6SM SKC
     FM192000 22007KT P6SM SKC=



000
FTUS42 KFFC 182320
TAFPDK
TAF
KPDK 182320Z 1900/1924 31006KT P6SM SKC
     FM190100 00000KT P6SM SKC
     FM191600 24006KT P6SM SKC=



000
FTUS42 KFFC 182320
TAFCSG
TAF
KCSG 182320Z 1900/1924 33006KT P6SM FEW250
     FM190200 00000KT P6SM SKC
     FM191600 25005KT P6SM SKC=



000
FTUS42 KFFC 182320
TAFATL
TAF
KATL 182320Z 1900/2006 31008KT P6SM SKC
     FM190400 30003KT P6SM SKC
     FM191700 25006KT P6SM SKC
     FM192000 22007KT P6SM SKC=



000
FTUS42 KFFC 182320
TAFAHN
TAF
KAHN 182320Z 1900/1924 30007KT P6SM SKC
     FM190200 00000KT P6SM SKC
     FM191600 25005KT P6SM SKC=



000
FTUS42 KFFC 182320
TAFMCN
TAF
KMCN 182320Z 1900/1924 31006KT P6SM FEW250
     FM190200 00000KT P6SM SKC
     FM191600 26005KT P6SM SKC=



000
FTUS42 KFFC 182320
TAFFTY
TAF
KFTY 182320Z 1900/1924 31006KT P6SM SKC
     FM190100 00000KT P6SM SKC
     FM191600 24006KT P6SM SKC=



000
FTUS42 KFFC 182320
TAFRYY
TAF
KRYY 182320Z 1900/1924 31006KT P6SM SKC
     FM190200 00000KT P6SM SKC
     FM191600 24006KT P6SM SKC
      AMD NOT SKED 1904/1912=



000
FTUS42 KFFC 182201 AAB
TAFATL
TAF AMD
KATL 182201Z 1822/1924 31012KT P6SM SCT250
     FM190000 31008KT P6SM SKC
     FM190400 30003KT P6SM SKC
     FM191700 25006KT P6SM SKC=



000
FTUS42 KFFC 182201 AAB
TAFATL
TAF AMD
KATL 182201Z 1822/1924 31012KT P6SM SCT250
     FM190000 31008KT P6SM SKC
     FM190400 30003KT P6SM SKC
     FM191700 25006KT P6SM SKC=



000
FTUS42 KFFC 181939 AAA
TAFATL
TAF AMD
KATL 181939Z 1820/1924 31014G20KT P6SM SCT250
     FM190000 31008KT P6SM SKC
     FM190400 30003KT P6SM SKC
     FM191700 25006KT P6SM SKC=



000
FTUS42 KFFC 181732
TAFAHN
TAF
KAHN 181732Z 1818/1918 30012G20KT P6SM BKN250
     FM190000 30007KT P6SM SKC
     FM190200 00000KT P6SM SKC
     FM191600 25004KT P6SM SKC=



000
FTUS42 KFFC 181732
TAFFTY
TAF
KFTY 181732Z 1818/1918 31012G20KT P6SM SCT250
     FM182300 31006KT P6SM SKC
     FM190100 00000KT P6SM SKC
     FM191600 24004KT P6SM SKC=



000
FTUS42 KFFC 181732
TAFCSG
TAF
KCSG 181732Z 1818/1918 33012G20KT P6SM BKN250
     FM190000 33006KT P6SM FEW250
     FM190200 00000KT P6SM SKC
     FM191600 25003KT P6SM SKC=



000
FTUS42 KFFC 181732
TAFATL
TAF
KATL 181732Z 1818/1924 31015G25KT P6SM SCT250
     FM190000 31008KT P6SM SKC
     FM190400 30003KT P6SM SKC
     FM191700 25006KT P6SM SKC=



000
FTUS42 KFFC 181732
TAFMCN
TAF
KMCN 181732Z 1818/1918 32012G20KT P6SM BKN250
     FM190000 31006KT P6SM FEW250
     FM190200 00000KT P6SM SKC
     FM191600 26003KT P6SM SKC=



000
FTUS42 KFFC 181732
TAFPDK
TAF
KPDK 181732Z 1818/1918 31012G20KT P6SM SCT250
     FM182300 31006KT P6SM SKC
     FM190100 00000KT P6SM SKC
     FM191600 24004KT P6SM SKC=



000
FTUS42 KFFC 181732
TAFRYY
TAF
KRYY 181732Z 1818/1918 30012G20KT P6SM SCT030
     FM181900 31012G20KT P6SM SCT250
     FM182300 31006KT P6SM SKC
     FM190200 00000KT P6SM SKC
     FM191600 24004KT P6SM SKC=



000
FTUS42 KFFC 181605 AAB
TAFRYY
TAF AMD
KRYY 181605Z 1816/1912 31012G20KT P6SM BKN030
     FM181800 31012G20KT P6SM BKN250
     FM182200 31008KT P6SM SKC
     FM190200 31004KT P6SM SKC=



000
FTUS42 KFFC 181539 AAA
TAFCSG
TAF AMD
KCSG 181539Z 1816/1912 34012G20KT P6SM BKN250
     FM190000 34004KT P6SM SKC=



000
FTUS42 KFFC 181539 AAA
TAFMCN
TAF AMD
KMCN 181539Z 1816/1912 32012G20KT P6SM BKN250
     FM190000 30004KT P6SM SKC=



000
FTUS42 KFFC 181538 AAB
TAFATL
TAF AMD
KATL 181538Z 1816/1918 31015G25KT P6SM FEW035 BKN250
     FM181800 31015G25KT P6SM BKN250
     FM190000 32006KT P6SM SKC
     FM190900 30004KT P6SM FEW250=



000
FTUS42 KFFC 181345 AAA
TAFAHN
TAF AMD
KAHN 181345Z 1814/1912 30012G20KT P6SM BKN250
     FM190000 30007KT P6SM SKC
     FM190200 30004KT P6SM SKC=



000
FTUS42 KFFC 181345 AAA
TAFRYY
TAF AMD
KRYY 181345Z 1814/1912 31012G20KT P6SM BKN250
     FM182200 31008KT P6SM SKC
     FM190200 31004KT P6SM SKC=



000
FTUS42 KFFC 181344 AAA
TAFFTY
TAF AMD
KFTY 181344Z 1814/1912 31012G20KT P6SM BKN250
     FM182200 31008KT P6SM SKC
     FM190200 31004KT P6SM SKC=



000
FTUS42 KFFC 181344 AAA
TAFATL
TAF AMD
KATL 181344Z 1814/1918 31015G25KT P6SM BKN250
     FM190000 32006KT P6SM SKC
     FM190900 30004KT P6SM FEW250=



000
FTUS42 KFFC 181344 AAA
TAFPDK
TAF AMD
KPDK 181344Z 1814/1912 31012G20KT P6SM BKN250
     FM182200 31008KT P6SM SKC
     FM190200 31004KT P6SM SKC=



000
FTUS42 KFFC 181121
TAFATL
TAF
KATL 181121Z 1812/1918 31015G25KT P6SM SKC
     FM181800 30012G22KT P6SM SKC
     FM190000 32006KT P6SM SKC
     FM190900 30004KT P6SM FEW250=



000
FTUS42 KFFC 181121
TAFMCN
TAF
KMCN 181121Z 1812/1912 30010KT P6SM SKC
     FM181500 30012G20KT P6SM SKC
     FM190000 30004KT P6SM SKC=



000
FTUS42 KFFC 181121
TAFFTY
TAF
KFTY 181121Z 1812/1912 31012G20KT P6SM SKC
     FM182200 31008KT P6SM SKC
     FM190200 31004KT P6SM SKC=



000
FTUS42 KFFC 181121
TAFAHN
TAF
KAHN 181121Z 1812/1912 30012G20KT P6SM SKC
     FM190000 30007KT P6SM SKC
     FM190200 30004KT P6SM SKC=



000
FTUS42 KFFC 181121
TAFPDK
TAF
KPDK 181121Z 1812/1912 31012G20KT P6SM SKC
     FM182200 31008KT P6SM SKC
     FM190200 31004KT P6SM SKC=



000
FTUS42 KFFC 181121
TAFCSG
TAF
KCSG 181121Z 1812/1912 32010KT P6SM SKC
     FM181500 33012G20KT P6SM SKC
     FM190000 34004KT P6SM SKC=



000
FTUS42 KFFC 181121
TAFRYY
TAF
KRYY 181121Z 1812/1912 31012G20KT P6SM SKC
     FM182200 31008KT P6SM SKC
     FM190200 31004KT P6SM SKC=



000
FTUS42 KFFC 180952 AAB
TAFATL
TAF AMD
KATL 180952Z 1810/1912 31015G25KT P6SM SKC
     FM181800 30012G22KT P6SM SKC
     FM190000 32006KT P6SM SKC=



000
FTUS42 KFFC 180952 AAB
TAFATL
TAF AMD
KATL 180952Z 1810/1912 31015G25KT P6SM SKC
     FM181800 30012G22KT P6SM SKC
     FM190000 32006KT P6SM SKC=



000
FTUS42 KFFC 180751 AAA
TAFATL
TAF AMD
KATL 180751Z 1808/1912 31015G25KT P6SM FEW035
     FM181200 31015G25KT P6SM SKC
     FM181800 30012G22KT P6SM SKC
     FM190000 32006KT P6SM SKC=



000
FTUS42 KFFC 180520
TAFFTY
TAF
KFTY 180520Z 1806/1906 30012G20KT P6SM SCT035
     FM181200 31012G20KT P6SM SKC
     FM190000 31005KT P6SM SKC=



000
FTUS42 KFFC 180520
TAFATL
TAF
KATL 180520Z 1806/1912 31015G25KT P6SM FEW035
     FM181200 31015G25KT P6SM SKC
     FM181800 30012G22KT P6SM SKC
     FM190000 32006KT P6SM SKC=



000
FTUS42 KFFC 180520
TAFPDK
TAF
KPDK 180520Z 1806/1906 30012G20KT P6SM SCT035
     FM181200 31012G20KT P6SM SKC
     FM190000 31005KT P6SM SKC=



000
FTUS42 KFFC 180520
TAFRYY
TAF
KRYY 180520Z 1806/1906 30012G20KT P6SM SCT035
     FM181200 31012G20KT P6SM SKC
     FM190000 31005KT P6SM SKC=



000
FTUS42 KFFC 180520
TAFCSG
TAF
KCSG 180520Z 1806/1906 32010KT P6SM SKC
     FM181500 33012G20KT P6SM SKC
     FM190000 34006KT P6SM SKC=



000
FTUS42 KFFC 180520
TAFAHN
TAF
KAHN 180520Z 1806/1906 30012G20KT P6SM SKC
     FM190000 30006KT P6SM SKC=



000
FTUS42 KFFC 180520
TAFMCN
TAF
KMCN 180520Z 1806/1906 30010KT P6SM SKC
     FM181500 30012G20KT P6SM SKC
     FM190000 32006KT P6SM SKC=



000
FTUS42 KFFC 180340 AAB
TAFATL
TAF AMD
KATL 180340Z 1804/1906 30012G20KT P6SM FEW035
     FM181600 30012G23KT P6SM SKC
     FM190000 31008KT P6SM SKC=



000
FTUS42 KFFC 180133 AAA
TAFATL
TAF AMD
KATL 180133Z 1802/1906 30012G20KT P6SM FEW035
     FM181600 30012G23KT P6SM SKC
     FM190000 31008KT P6SM SKC=



000
FTUS42 KFFC 172337
TAFFTY
TAF
KFTY 172337Z 1800/1824 31010G20KT P6SM SCT030
     FM180200 30015G25KT P6SM SCT035
     FM181600 30012G23KT P6SM SKC
     FM182300 31008KT P6SM SKC=



000
FTUS42 KFFC 172337
TAFCSG
TAF
KCSG 172337Z 1800/1824 33010G20KT P6SM SCT025
     FM180200 30015G25KT P6SM SCT035
     FM181600 30012G23KT P6SM SKC
     FM182300 31008KT P6SM SKC=



000
FTUS42 KFFC 172337
TAFPDK
TAF
KPDK 172337Z 1800/1824 32012G20KT P6SM SCT030
     FM180200 30015G25KT P6SM SCT035
     FM181600 30012G23KT P6SM SKC
     FM182300 31008KT P6SM SKC=



000
FTUS42 KFFC 172337
TAFRYY
TAF
KRYY 172337Z 1800/1824 31010G20KT P6SM SCT030
     FM180200 30015G25KT P6SM SCT035
     FM181600 30012G23KT P6SM SKC
     FM182300 31008KT P6SM SKC=



000
FTUS42 KFFC 172337
TAFAHN
TAF
KAHN 172337Z 1800/1824 29010G20KT P6SM SCT025
     FM180200 30015G25KT P6SM SCT035
     FM181600 30012G23KT P6SM SKC
     FM182300 31008KT P6SM SKC=



000
FTUS42 KFFC 172337
TAFATL
TAF
KATL 172337Z 1800/1906 31015G25KT P6SM SCT025
     FM180200 30015G25KT P6SM SCT035
     FM181600 30012G23KT P6SM SKC
     FM190000 31008KT P6SM SKC=



000
FTUS42 KFFC 172337
TAFMCN
TAF
KMCN 172337Z 1800/1824 31010G20KT P6SM SCT030
     FM180200 30015G25KT P6SM SCT035
     FM181600 30012G23KT P6SM SKC
     FM182300 31008KT P6SM SKC=



000
FTUS42 KFFC 172156 AAB
TAFFTY
TAF AMD
KFTY 172156Z 1722/1818 31015G25KT P6SM BKN025
     FM180000 31015G25KT P6SM SCT030
     FM180200 30015G25KT P6SM SCT035
     FM181600 30012G23KT P6SM SKC=



000
FTUS42 KFFC 172155 AAA
TAFRYY
TAF AMD
KRYY 172155Z 1722/1818 31015G25KT P6SM BKN020
     FM180000 31015G25KT P6SM SCT025
     FM180200 30015G25KT P6SM SCT035
     FM181600 30012G23KT P6SM SKC=



000
FTUS42 KFFC 172144 AAB
TAFATL
TAF AMD
KATL 172144Z 1722/1824 31015G25KT P6SM BKN020
     FM180000 31015G25KT P6SM SCT025
     FM180200 30015G25KT P6SM SCT035
     FM181600 30012G23KT P6SM SKC=



000
FTUS42 KFFC 172144 AAB
TAFATL
TAF AMD
KATL 172144Z 1722/1824 31015G25KT P6SM BKN020
     FM180000 31015G25KT P6SM SCT025
     FM180200 30015G25KT P6SM SCT035
     FM181600 30012G23KT P6SM SKC=



000
FTUS42 KFFC 172140 AAB
TAFAHN
TAF AMD
KAHN 172140Z 1722/1818 30012G24KT P6SM SCT025
     FM180200 30011G22KT P6SM FEW035
     FM181600 30010G20KT P6SM SKC=



    US Dept of Commerce
    National Oceanic and Atmospheric Administration
    National Weather Service
    1325 East West Highway
    Silver Spring, MD 20910
    Page Author: NWS Internet Services Team
Disclaimer
Information Quality
Credits
Glossary
Privacy Policy
Freedom of Information Act (FOIA)
About Us
Career Opportunities